createdAt,value
2022-09-15T00:01:23.519Z,6.05
2022-09-15T00:03:52.000Z,6.10
2022-09-15T00:06:20.674Z,6.95
2022-09-15T00:08:48.905Z,6.30
2022-09-15T00:11:31.843Z,7.43
2022-09-15T00:14:02.264Z,7.10
2022-09-15T00:16:31.925Z,6.60
2022-09-15T00:19:01.502Z,6.70
2022-09-15T00:21:32.172Z,7.30
2022-09-15T00:24:01.718Z,7.15
2022-09-15T00:26:31.242Z,6.22
2022-09-15T00:29:00.835Z,6.72
2022-09-15T00:31:31.077Z,5.57
2022-09-15T00:34:00.980Z,6.00
2022-09-15T00:36:29.925Z,5.95
2022-09-15T00:38:58.457Z,5.88
2022-09-15T00:41:26.788Z,7.53
2022-09-15T00:43:58.340Z,6.28
2022-09-15T00:46:33.409Z,5.95
2022-09-15T00:49:07.167Z,6.72
2022-09-15T00:51:38.338Z,7.45
2022-09-15T00:54:11.800Z,8.40
2022-09-15T00:56:42.967Z,8.38
2022-09-15T00:59:17.512Z,7.97
2022-09-15T01:01:47.882Z,8.30
2022-09-15T01:04:17.183Z,7.63
2022-09-15T01:06:57.376Z,7.50
2022-09-15T01:09:51.412Z,8.13
2022-09-15T01:12:20.966Z,7.75
2022-09-15T01:14:49.149Z,7.38
2022-09-15T01:17:37.603Z,6.93
2022-09-15T01:20:24.307Z,6.78
2022-09-15T01:23:21.432Z,6.07
2022-09-15T01:26:15.537Z,6.88
2022-09-15T01:29:02.243Z,6.00
2022-09-15T01:31:34.602Z,7.55
2022-09-15T01:34:18.650Z,7.80
2022-09-15T01:36:56.790Z,6.68
2022-09-15T01:39:29.345Z,6.72
2022-09-15T01:42:10.729Z,8.35
2022-09-15T01:45:04.227Z,7.75
2022-09-15T01:47:34.745Z,8.63
2022-09-15T01:50:19.557Z,7.55
2022-09-15T01:52:50.196Z,6.63
2022-09-15T01:55:39.354Z,6.53
2022-09-15T01:58:08.832Z,8.80
2022-09-15T02:00:42.002Z,8.05
2022-09-15T02:03:20.886Z,7.60
2022-09-15T02:05:58.113Z,8.98
2022-09-15T02:08:37.100Z,8.95
2022-09-15T02:11:17.288Z,8.27
2022-09-15T02:14:07.132Z,7.85
2022-09-15T02:16:36.722Z,9.00
2022-09-15T02:19:31.159Z,8.30
2022-09-15T02:22:12.834Z,7.32
2022-09-15T02:24:48.461Z,7.70
2022-09-15T02:27:24.369Z,7.47
2022-09-15T02:29:56.414Z,7.63
2022-09-15T02:32:26.768Z,7.05
2022-09-15T02:34:57.648Z,6.30
2022-09-15T02:37:26.659Z,6.63
2022-09-15T02:39:57.584Z,6.85
2022-09-15T02:42:31.198Z,6.78
2022-09-15T02:45:00.951Z,6.55
2022-09-15T02:47:29.368Z,6.95
2022-09-15T02:49:57.479Z,5.43
2022-09-15T02:52:25.777Z,6.60
2022-09-15T02:54:53.900Z,6.53
2022-09-15T02:57:22.107Z,5.75
2022-09-15T02:59:50.209Z,5.65
2022-09-15T03:02:19.185Z,4.82
2022-09-15T03:04:50.960Z,4.28
2022-09-15T03:07:20.431Z,6.03
2022-09-15T03:09:48.599Z,5.55
2022-09-15T03:12:16.861Z,5.25
2022-09-15T03:14:45.108Z,4.20
2022-09-15T03:17:13.406Z,4.85
2022-09-15T03:19:41.601Z,4.70
2022-09-15T03:22:10.022Z,4.85
2022-09-15T03:24:38.875Z,4.18
2022-09-15T03:27:07.129Z,3.97
2022-09-15T03:29:35.368Z,4.72
2022-09-15T03:32:03.535Z,4.25
2022-09-15T03:34:31.773Z,4.40
2022-09-15T03:36:59.917Z,4.22
2022-09-15T03:39:28.099Z,4.65
2022-09-15T03:41:56.410Z,5.07
2022-09-15T03:44:24.492Z,4.05
2022-09-15T03:46:52.777Z,4.35
2022-09-15T03:49:21.039Z,3.75
2022-09-15T03:51:49.177Z,4.43
2022-09-15T03:54:18.050Z,3.63
2022-09-15T03:56:46.409Z,3.03
2022-09-15T03:59:14.641Z,3.58
2022-09-15T04:01:42.983Z,3.75
2022-09-15T04:04:11.250Z,3.92
2022-09-15T04:06:39.730Z,4.03
2022-09-15T04:09:08.209Z,3.40
2022-09-15T04:11:36.414Z,3.80
2022-09-15T04:14:04.692Z,4.70
2022-09-15T04:16:33.177Z,3.92
2022-09-15T04:19:01.458Z,4.43
2022-09-15T04:21:29.760Z,4.45
2022-09-15T04:23:57.933Z,4.47
2022-09-15T04:26:30.603Z,3.72
2022-09-15T04:29:03.663Z,3.95
2022-09-15T04:31:33.726Z,4.18
2022-09-15T04:34:02.378Z,3.67
2022-09-15T04:36:30.523Z,3.45
2022-09-15T04:38:58.879Z,3.13
2022-09-15T04:41:27.898Z,3.63
2022-09-15T04:43:56.406Z,4.03
2022-09-15T04:46:24.730Z,3.83
2022-09-15T04:48:52.838Z,3.47
2022-09-15T04:51:22.382Z,4.60
2022-09-15T04:53:51.076Z,4.65
2022-09-15T04:56:22.161Z,4.82
2022-09-15T04:58:53.226Z,4.60
2022-09-15T05:01:28.043Z,4.53
2022-09-15T05:03:57.215Z,5.03
2022-09-15T05:06:27.578Z,4.90
2022-09-15T05:08:57.844Z,5.53
2022-09-15T05:11:27.062Z,4.93
2022-09-15T05:13:55.426Z,4.50
2022-09-15T05:16:28.644Z,4.53
2022-09-15T05:18:59.580Z,4.80
2022-09-15T05:21:28.518Z,5.18
2022-09-15T05:23:56.859Z,5.20
2022-09-15T05:26:27.704Z,4.47
2022-09-15T05:28:57.127Z,5.50
2022-09-15T05:31:27.905Z,4.97
2022-09-15T05:33:56.242Z,4.13
2022-09-15T05:36:25.536Z,4.63
2022-09-15T05:38:54.842Z,4.30
2022-09-15T05:41:23.678Z,4.35
2022-09-15T05:43:52.285Z,5.53
2022-09-15T05:46:20.786Z,5.32
2022-09-15T05:48:49.280Z,4.20
2022-09-15T05:51:17.326Z,5.20
2022-09-15T05:53:45.554Z,4.97
2022-09-15T05:56:15.445Z,4.10
2022-09-15T05:58:45.906Z,5.10
2022-09-15T06:01:25.659Z,4.75
2022-09-15T06:03:55.616Z,3.92
2022-09-15T06:06:24.646Z,5.25
2022-09-15T06:08:58.165Z,4.53
2022-09-15T06:11:30.054Z,4.20
2022-09-15T06:14:02.470Z,3.92
2022-09-15T06:16:34.275Z,4.78
2022-09-15T06:19:02.674Z,3.95
2022-09-15T06:21:33.229Z,3.88
2022-09-15T06:24:03.870Z,3.72
2022-09-15T06:26:32.080Z,4.82
2022-09-15T06:30:58.080Z,4.43
2022-09-15T06:33:26.474Z,4.93
2022-09-15T06:37:51.644Z,6.38
2022-09-15T06:40:19.850Z,4.75
2022-09-15T06:42:47.997Z,5.07
2022-09-15T06:45:16.317Z,7.13
2022-09-15T06:47:44.426Z,11.90
2022-09-15T06:50:12.422Z,10.63
2022-09-15T06:52:40.638Z,6.30
2022-09-15T06:55:09.010Z,5.00
2022-09-15T06:57:37.226Z,4.53
2022-09-15T07:00:06.112Z,5.40
2022-09-15T07:02:34.507Z,5.45
2022-09-15T07:05:02.830Z,4.95
2022-09-15T07:07:30.960Z,4.50
2022-09-15T07:09:58.975Z,5.95
2022-09-15T07:12:27.259Z,7.07
2022-09-15T07:14:55.301Z,4.75
2022-09-15T07:17:23.414Z,5.82
2022-09-15T07:19:51.555Z,6.20
2022-09-15T07:22:19.709Z,5.03
2022-09-15T07:24:47.878Z,6.00
2022-09-15T07:27:16.172Z,5.63
2022-09-15T07:29:44.441Z,6.00
2022-09-15T07:32:12.523Z,6.13
2022-09-15T07:34:40.809Z,6.70
2022-09-15T07:37:09.179Z,5.97
2022-09-15T07:39:37.352Z,7.07
2022-09-15T07:42:05.782Z,6.90
2022-09-15T07:44:34.020Z,9.23
2022-09-15T07:47:02.082Z,8.45
2022-09-15T07:49:30.368Z,7.63
2022-09-15T07:51:58.806Z,7.65
2022-09-15T07:54:27.285Z,7.57
2022-09-15T07:56:55.415Z,7.15
2022-09-15T07:59:23.611Z,10.07
2022-09-15T08:01:51.891Z,9.00
2022-09-15T08:04:20.406Z,5.45
2022-09-15T08:06:48.674Z,6.97
2022-09-15T08:09:16.934Z,5.88
2022-09-15T08:11:45.201Z,6.60
2022-09-15T08:15:53.748Z,5.93
2022-09-15T08:18:22.106Z,4.80
2022-09-15T08:20:50.313Z,5.30
2022-09-15T08:23:18.522Z,4.90
2022-09-15T08:25:46.888Z,5.35
2022-09-15T08:28:14.981Z,6.18
2022-09-15T08:30:43.321Z,3.13
2022-09-15T08:33:11.505Z,3.92
2022-09-15T08:35:39.578Z,3.78
2022-09-15T08:38:07.941Z,4.30
2022-09-15T08:40:38.458Z,4.18
2022-09-15T08:43:21.581Z,3.67
2022-09-15T08:46:13.592Z,3.45
2022-09-15T08:48:51.210Z,3.80
2022-09-15T08:51:29.820Z,3.60
2022-09-15T08:54:06.543Z,5.03
2022-09-15T08:56:36.805Z,5.45
2022-09-15T08:59:06.346Z,3.92
2022-09-15T09:01:56.456Z,6.00
2022-09-15T09:04:57.102Z,4.68
2022-09-15T09:07:43.755Z,4.45
2022-09-15T09:10:34.867Z,5.35
2022-09-15T09:13:32.016Z,3.97
2022-09-15T09:16:12.225Z,3.63
2022-09-15T09:19:07.503Z,4.53
2022-09-15T09:21:55.181Z,3.88
2022-09-15T09:24:32.839Z,3.92
2022-09-15T09:27:01.029Z,3.85
2022-09-15T09:29:53.799Z,3.83
2022-09-15T09:32:26.208Z,4.72
2022-09-15T09:35:16.702Z,4.15
2022-09-15T09:37:45.283Z,4.28
2022-09-15T09:40:15.733Z,3.97
2022-09-15T09:42:45.457Z,4.57
2022-09-15T09:45:18.907Z,4.50
2022-09-15T09:47:47.428Z,4.30
2022-09-15T09:50:38.530Z,5.00
2022-09-15T09:53:28.434Z,5.20
2022-09-15T09:56:17.593Z,5.82
2022-09-15T09:58:46.016Z,5.22
2022-09-15T10:01:20.453Z,11.50
2022-09-15T10:03:48.817Z,7.07
2022-09-15T10:06:22.397Z,5.90
2022-09-15T10:09:02.920Z,4.85
2022-09-15T10:11:54.075Z,5.38
2022-09-15T10:14:33.336Z,5.10
2022-09-15T10:17:17.164Z,3.97
2022-09-15T10:19:48.324Z,5.32
2022-09-15T10:22:38.772Z,4.03
2022-09-15T10:25:22.993Z,4.38
2022-09-15T10:28:27.438Z,3.40
2022-09-15T10:31:15.450Z,4.07
2022-09-15T10:33:45.550Z,4.53
2022-09-15T10:36:45.222Z,3.63
2022-09-15T10:39:21.515Z,3.90
2022-09-15T10:42:12.932Z,4.18
2022-09-15T10:44:59.523Z,3.58
2022-09-15T10:47:39.211Z,3.92
2022-09-15T10:50:10.376Z,3.85
2022-09-15T10:53:03.124Z,4.57
2022-09-15T10:56:05.428Z,3.67
2022-09-15T10:58:51.887Z,3.60
2022-09-15T11:01:30.857Z,4.63
2022-09-15T11:04:14.214Z,4.40
2022-09-15T11:07:17.986Z,3.80
2022-09-15T11:09:49.196Z,4.45
2022-09-15T11:12:29.614Z,4.60
2022-09-15T11:15:20.064Z,4.43
2022-09-15T11:18:06.529Z,4.40
2022-09-15T11:21:13.083Z,4.43
2022-09-15T11:24:01.293Z,4.35
2022-09-15T11:26:29.564Z,4.35
2022-09-15T11:29:06.189Z,5.07
2022-09-15T11:31:44.423Z,4.38
2022-09-15T11:34:48.153Z,5.03
2022-09-15T11:37:45.872Z,4.07
2022-09-15T11:40:29.193Z,4.35
2022-09-15T11:43:04.158Z,4.00
2022-09-15T11:45:41.507Z,4.15
2022-09-15T11:48:30.376Z,3.70
2022-09-15T11:51:02.329Z,4.43
2022-09-15T11:56:32.740Z,3.80
2022-09-15T11:59:10.935Z,4.57
2022-09-15T12:02:08.266Z,4.13
2022-09-15T12:04:43.505Z,3.90
2022-09-15T12:07:18.293Z,4.10
2022-09-15T12:09:46.687Z,4.35
2022-09-15T12:12:18.846Z,5.05
2022-09-15T12:14:52.773Z,5.15
2022-09-15T12:17:30.816Z,3.20
2022-09-15T12:20:14.469Z,4.40
2022-09-15T12:22:52.949Z,5.32
2022-09-15T12:25:23.704Z,5.05
2022-09-15T12:28:22.837Z,6.82
2022-09-15T12:31:11.621Z,5.78
2022-09-15T12:33:53.491Z,9.38
2022-09-15T12:36:38.565Z,7.55
2022-09-15T12:39:20.679Z,6.50
2022-09-15T12:44:47.900Z,5.53
2022-09-15T12:47:25.046Z,4.80
2022-09-15T12:49:57.553Z,5.82
2022-09-15T12:52:26.869Z,5.07
2022-09-15T12:55:04.929Z,5.00
2022-09-15T12:57:36.767Z,6.85
2022-09-15T13:00:21.304Z,5.22
2022-09-15T13:02:51.570Z,5.90
2022-09-15T13:06:15.545Z,5.40
2022-09-15T13:08:55.912Z,5.53
2022-09-15T13:11:36.472Z,5.50
2022-09-15T13:14:04.864Z,6.35
2022-09-15T13:16:42.392Z,5.85
2022-09-15T13:19:24.986Z,9.20
2022-09-15T13:22:02.912Z,5.75
2022-09-15T13:24:49.389Z,5.75
2022-09-15T13:27:26.618Z,7.43
2022-09-15T13:30:10.282Z,8.77
2022-09-15T13:32:44.497Z,7.78
2022-09-15T13:35:57.405Z,10.40
2022-09-15T13:38:31.829Z,9.82
2022-09-15T13:41:24.673Z,7.63
2022-09-15T13:46:42.443Z,8.93
2022-09-15T13:49:28.792Z,7.30
2022-09-15T13:52:19.967Z,7.05
2022-09-15T13:55:09.810Z,8.15
2022-09-15T14:00:43.169Z,7.72
2022-09-15T14:03:14.336Z,6.03
2022-09-15T14:05:42.995Z,7.60
2022-09-15T14:08:21.488Z,12.25
2022-09-15T14:12:31.386Z,6.57
2022-09-15T14:15:04.158Z,6.10
2022-09-15T14:17:45.944Z,6.60
2022-09-15T14:20:28.102Z,4.70
2022-09-15T14:25:24.370Z,4.72
2022-09-15T14:27:55.219Z,4.47
2022-09-15T14:30:28.162Z,4.70
2022-09-15T14:33:00.813Z,4.68
2022-09-15T14:35:37.669Z,4.43
2022-09-15T14:38:06.100Z,5.85
2022-09-15T14:40:39.607Z,5.00
2022-09-15T14:43:25.650Z,4.75
2022-09-15T14:46:02.901Z,4.15
2022-09-15T14:48:34.608Z,5.22
2022-09-15T14:51:08.948Z,5.15
2022-09-15T14:53:40.200Z,6.18
2022-09-15T14:56:19.861Z,5.82
2022-09-15T14:58:48.049Z,5.85
2022-09-15T15:01:29.143Z,4.90
2022-09-15T15:04:15.923Z,5.90
2022-09-15T15:07:29.795Z,5.88
2022-09-15T15:10:02.159Z,5.28
2022-09-15T15:12:40.227Z,5.18
2022-09-15T15:15:13.101Z,5.25
2022-09-15T15:17:43.952Z,4.50
2022-09-15T15:20:15.063Z,4.65
2022-09-15T15:22:45.013Z,6.37
2022-09-15T15:25:32.730Z,5.45
2022-09-15T15:28:02.050Z,5.45
2022-09-15T15:30:32.398Z,6.93
2022-09-15T15:33:29.582Z,6.65
2022-09-15T15:36:20.771Z,6.05
2022-09-15T15:39:18.839Z,5.40
2022-09-15T15:44:15.217Z,5.95
2022-09-15T15:47:03.552Z,6.07
2022-09-15T15:49:32.898Z,5.18
2022-09-15T15:52:01.927Z,5.95
2022-09-15T15:54:30.523Z,5.60
2022-09-15T15:57:21.217Z,5.43
2022-09-15T15:59:49.669Z,5.30
2022-09-15T16:02:17.965Z,5.28
2022-09-15T16:04:46.122Z,3.97
2022-09-15T16:07:19.218Z,3.67
2022-09-15T16:09:48.641Z,4.72
2022-09-15T16:12:17.247Z,4.22
2022-09-15T16:14:45.430Z,4.32
2022-09-15T16:17:13.639Z,4.45
2022-09-15T16:19:41.836Z,5.10
2022-09-15T16:22:18.051Z,3.75
2022-09-15T16:24:46.283Z,3.70
2022-09-15T16:27:18.654Z,4.32
2022-09-15T16:29:48.337Z,4.40
2022-09-15T16:32:19.983Z,4.20
2022-09-15T16:34:48.818Z,4.18
2022-09-15T16:37:16.928Z,5.13
2022-09-15T16:39:45.300Z,7.20
2022-09-15T16:42:13.645Z,6.80
2022-09-15T16:44:41.783Z,7.57
2022-09-15T16:47:09.868Z,6.85
2022-09-15T16:49:38.178Z,4.60
2022-09-15T16:52:06.652Z,4.47
2022-09-15T16:54:34.897Z,5.88
2022-09-15T16:57:03.080Z,5.57
2022-09-15T16:59:31.420Z,5.22
2022-09-15T17:01:59.713Z,5.22
2022-09-15T17:04:28.024Z,6.07
2022-09-15T17:06:56.321Z,8.00
2022-09-15T17:09:24.432Z,8.90
2022-09-15T17:11:53.998Z,8.98
2022-09-15T17:14:22.308Z,11.98
2022-09-15T17:16:50.534Z,7.25
2022-09-15T17:19:18.775Z,6.85
2022-09-15T17:21:47.759Z,7.20
2022-09-15T17:24:16.610Z,8.93
2022-09-15T17:26:46.575Z,8.65
2022-09-15T17:29:14.897Z,9.25
2022-09-15T17:31:43.033Z,8.18
2022-09-15T17:34:14.449Z,8.85
2022-09-15T17:36:42.706Z,8.70
2022-09-15T17:39:10.855Z,10.18
2022-09-15T17:41:39.151Z,9.90
2022-09-15T17:44:11.765Z,8.75
2022-09-15T17:46:40.194Z,9.05
2022-09-15T17:49:08.449Z,9.18
2022-09-15T17:51:36.663Z,9.20
2022-09-15T17:54:04.897Z,8.18
2022-09-15T17:56:33.229Z,8.40
2022-09-15T17:59:01.441Z,7.78
2022-09-15T18:01:29.659Z,8.15
2022-09-15T18:03:58.194Z,7.93
2022-09-15T18:06:26.366Z,8.23
2022-09-15T18:08:54.526Z,9.25
2022-09-15T18:11:22.927Z,9.30
2022-09-15T18:13:51.025Z,10.40
2022-09-15T18:16:19.334Z,11.13
2022-09-15T18:18:47.596Z,8.60
2022-09-15T18:21:25.980Z,9.60
2022-09-15T18:23:54.170Z,10.10
2022-09-15T18:26:26.326Z,10.68
2022-09-15T18:28:55.321Z,9.82
2022-09-15T18:31:23.905Z,9.15
2022-09-15T18:33:52.128Z,10.13
2022-09-15T18:36:20.386Z,10.50
2022-09-15T18:38:48.490Z,10.52
2022-09-15T18:41:16.631Z,12.48
2022-09-15T18:43:44.934Z,15.68
2022-09-15T18:46:13.153Z,11.13
2022-09-15T18:48:41.946Z,11.18
2022-09-15T18:51:13.842Z,10.70
2022-09-15T18:53:52.057Z,11.75
2022-09-15T18:56:22.311Z,15.57
2022-09-15T18:58:53.812Z,24.77
2022-09-15T19:01:22.593Z,23.88
2022-09-15T19:03:50.810Z,18.90
2022-09-15T19:06:19.197Z,16.73
2022-09-15T19:08:47.419Z,18.40
2022-09-15T19:11:15.840Z,17.70
2022-09-15T19:13:44.072Z,15.52
2022-09-15T19:16:12.309Z,13.00
2022-09-15T19:18:40.748Z,11.63
2022-09-15T19:21:11.554Z,9.63
2022-09-15T19:23:40.047Z,19.05
2022-09-15T19:26:10.824Z,10.23
2022-09-15T19:28:39.429Z,10.80
2022-09-15T19:31:07.857Z,10.63
2022-09-15T19:33:36.101Z,10.05
2022-09-15T19:36:26.976Z,10.05
2022-09-15T19:38:54.788Z,10.10
2022-09-15T19:41:22.980Z,9.70
2022-09-15T19:43:51.143Z,10.32
2022-09-15T19:46:21.933Z,16.50
2022-09-15T19:48:50.597Z,41.65
2022-09-15T19:51:19.794Z,16.23
2022-09-15T19:53:48.284Z,17.10
2022-09-15T19:56:21.749Z,25.52
2022-09-15T19:58:50.595Z,21.08
2022-09-15T20:01:18.702Z,23.20
2022-09-15T20:03:47.046Z,26.25
2022-09-15T20:06:15.207Z,34.00
2022-09-15T20:08:43.366Z,20.75
2022-09-15T20:11:11.549Z,15.18
2022-09-15T20:13:42.067Z,13.23
2022-09-15T20:16:17.379Z,9.18
2022-09-15T20:18:47.313Z,16.05
2022-09-15T20:21:32.435Z,10.45
2022-09-15T20:24:06.322Z,10.35
2022-09-15T20:26:34.533Z,12.15
2022-09-15T20:29:04.016Z,15.45
2022-09-15T20:31:32.566Z,18.83
2022-09-15T20:34:01.781Z,14.23
2022-09-15T20:36:32.978Z,8.88
2022-09-15T20:39:02.090Z,9.35
2022-09-15T20:41:30.659Z,10.15
2022-09-15T20:43:59.433Z,8.93
2022-09-15T20:46:27.522Z,13.13
2022-09-15T20:48:55.766Z,40.88
2022-09-15T20:51:26.326Z,67.10
2022-09-15T20:53:56.574Z,75.35
2022-09-15T20:56:27.413Z,24.35
2022-09-15T20:58:57.667Z,12.00
2022-09-15T21:01:33.306Z,9.82
2022-09-15T21:04:02.189Z,11.75
2022-09-15T21:06:30.384Z,10.70
2022-09-15T21:08:58.804Z,10.13
2022-09-15T21:11:28.236Z,10.88
2022-09-15T21:13:57.426Z,10.90
2022-09-15T21:16:28.752Z,13.45
2022-09-15T21:18:59.084Z,15.35
2022-09-15T21:21:30.881Z,12.27
2022-09-15T21:24:05.450Z,11.75
2022-09-15T21:26:36.242Z,40.67
2022-09-15T21:29:04.411Z,68.20
2022-09-15T21:31:33.717Z,88.30
2022-09-15T21:34:01.994Z,86.13
2022-09-15T21:36:31.721Z,38.97
2022-09-15T21:39:00.501Z,15.70
2022-09-15T21:41:29.549Z,18.70
2022-09-15T21:43:58.010Z,22.33
2022-09-15T21:46:31.890Z,35.58
2022-09-15T21:49:01.075Z,42.78
2022-09-15T21:51:30.187Z,31.95
2022-09-15T21:53:59.823Z,28.52
2022-09-15T21:56:29.640Z,27.67
2022-09-15T21:58:57.835Z,25.77
2022-09-15T22:01:28.356Z,17.90
2022-09-15T22:04:00.041Z,28.88
2022-09-15T22:06:32.248Z,25.85
2022-09-15T22:11:29.200Z,23.38
2022-09-15T22:13:57.743Z,16.00
2022-09-15T22:16:26.589Z,17.00
2022-09-15T22:18:55.211Z,16.67
2022-09-15T22:21:29.313Z,12.48
2022-09-15T22:23:58.857Z,7.90
2022-09-15T22:26:32.721Z,9.10
2022-09-15T22:29:01.700Z,16.60
2022-09-15T22:31:30.653Z,27.55
2022-09-15T22:33:59.012Z,15.90
2022-09-15T22:36:30.294Z,23.25
2022-09-15T22:39:00.265Z,27.33
2022-09-15T22:41:28.531Z,29.08
2022-09-15T22:43:56.784Z,13.48
2022-09-15T22:46:25.529Z,7.72
2022-09-15T22:48:53.876Z,7.90
2022-09-15T22:51:22.108Z,6.18
2022-09-15T22:53:54.178Z,6.47
2022-09-15T22:56:22.431Z,7.20
2022-09-15T22:58:50.988Z,5.75
2022-09-15T23:01:22.191Z,8.13
2022-09-15T23:03:59.150Z,7.93
2022-09-15T23:06:30.885Z,7.00
2022-09-15T23:09:02.355Z,7.68
2022-09-15T23:11:31.028Z,6.55
2022-09-15T23:13:59.356Z,7.28
2022-09-15T23:16:27.765Z,8.07
2022-09-15T23:18:56.246Z,7.15
2022-09-15T23:21:24.311Z,9.23
2022-09-15T23:23:55.000Z,8.20
2022-09-15T23:26:24.552Z,6.75
2022-09-15T23:28:52.819Z,7.65
2022-09-15T23:31:21.986Z,7.18
2022-09-15T23:33:50.516Z,6.57
2022-09-15T23:36:19.809Z,7.28
2022-09-15T23:38:49.622Z,6.90
2022-09-15T23:41:18.955Z,9.02
2022-09-15T23:43:47.822Z,6.28
2022-09-15T23:46:16.613Z,7.10
2022-09-15T23:48:45.292Z,6.50
2022-09-15T23:51:13.682Z,7.70
2022-09-15T23:53:41.750Z,6.10
2022-09-15T23:56:10.229Z,8.10
2022-09-15T23:58:38.391Z,8.15
